createdAt,value
2019-01-30T00:02:03.145Z,97720.14
2019-01-30T00:04:30.937Z,97720.25
2019-01-30T00:06:58.755Z,97711.88
2019-01-30T00:09:26.602Z,97702.98
2019-01-30T00:11:54.414Z,97700.88
2019-01-30T00:14:22.175Z,97701.52
2019-01-30T00:16:51.886Z,97697.94
2019-01-30T00:19:19.821Z,97694.69
2019-01-30T00:21:47.659Z,97685.27
2019-01-30T00:24:15.423Z,97683.35
2019-01-30T00:26:43.175Z,97685.08
2019-01-30T00:29:11.175Z,97682.19
2019-01-30T00:31:38.986Z,97673.77
2019-01-30T00:34:06.786Z,97668.94
2019-01-30T00:36:34.538Z,97663.11
2019-01-30T00:39:07.734Z,97649.25
2019-01-30T00:41:35.557Z,97655.00
2019-01-30T00:44:03.858Z,97652.27
2019-01-30T00:46:51.127Z,97652.52
2019-01-30T00:49:18.933Z,97647.80
2019-01-30T00:51:46.698Z,97646.95
2019-01-30T00:54:14.472Z,97638.14
2019-01-30T00:56:42.205Z,97636.95
2019-01-30T00:59:10.019Z,97629.99
2019-01-30T01:01:37.809Z,97623.72
2019-01-30T01:04:05.586Z,97629.14
2019-01-30T01:06:33.313Z,97626.33
2019-01-30T01:09:01.092Z,97627.35
2019-01-30T01:11:28.902Z,97619.78
2019-01-30T01:13:56.663Z,97616.13
2019-01-30T01:16:24.512Z,97611.52
2019-01-30T01:18:52.560Z,97609.59
2019-01-30T01:21:20.373Z,97601.61
2019-01-30T01:23:48.154Z,97597.16
2019-01-30T01:26:15.986Z,97595.62
2019-01-30T01:28:43.758Z,97586.94
2019-01-30T01:31:11.591Z,97582.81
2019-01-30T01:33:39.310Z,97585.30
2019-01-30T01:36:07.252Z,97578.88
2019-01-30T01:38:35.127Z,97572.31
2019-01-30T01:41:02.899Z,97565.55
2019-01-30T01:43:30.757Z,97566.86
2019-01-30T01:45:58.518Z,97558.49
2019-01-30T01:48:26.275Z,97549.13
2019-01-30T01:50:54.045Z,97548.84
2019-01-30T01:53:21.854Z,97541.41
2019-01-30T01:55:49.662Z,97538.19
2019-01-30T01:58:17.469Z,97529.66
2019-01-30T02:00:45.284Z,97530.95
2019-01-30T02:03:13.049Z,97532.91
2019-01-30T02:05:40.861Z,97523.39
2019-01-30T02:08:08.667Z,97524.84
2019-01-30T02:10:55.952Z,97519.98
2019-01-30T02:13:23.699Z,97523.23
2019-01-30T02:15:51.491Z,97513.04
2019-01-30T02:18:19.484Z,97510.08
2019-01-30T02:20:47.279Z,97508.87
2019-01-30T02:23:15.257Z,97506.13
2019-01-30T02:25:43.037Z,97505.48
2019-01-30T02:28:30.299Z,97499.23
2019-01-30T02:30:58.106Z,97489.72
2019-01-30T02:33:25.895Z,97481.50
2019-01-30T02:35:53.704Z,97481.67
2019-01-30T02:38:21.514Z,97479.25
2019-01-30T02:41:08.799Z,97474.75
2019-01-30T02:43:36.579Z,97472.66
2019-01-30T02:46:04.416Z,97467.16
2019-01-30T02:48:32.321Z,97450.86
2019-01-30T02:51:00.136Z,97448.27
2019-01-30T02:53:27.970Z,97449.41
2019-01-30T02:55:55.766Z,97446.50
2019-01-30T02:58:23.712Z,97442.45
2019-01-30T03:00:58.923Z,97440.06
2019-01-30T03:03:21.191Z,97443.45
2019-01-30T03:05:48.989Z,97437.48
2019-01-30T03:08:27.071Z,97432.98
2019-01-30T03:10:54.903Z,97427.31
2019-01-30T03:13:22.696Z,97422.98
2019-01-30T03:15:50.489Z,97415.36
2019-01-30T03:18:18.374Z,97409.08
2019-01-30T03:20:46.157Z,97402.45
2019-01-30T03:23:13.979Z,97398.08
2019-01-30T03:25:41.787Z,97402.44
2019-01-30T03:28:09.574Z,97395.80
2019-01-30T03:30:37.353Z,97398.20
2019-01-30T03:33:05.160Z,97393.36
2019-01-30T03:35:32.957Z,97389.65
2019-01-30T03:38:00.825Z,97384.81
2019-01-30T03:40:29.695Z,97389.95
2019-01-30T03:42:57.511Z,97384.30
2019-01-30T03:45:25.294Z,97380.57
2019-01-30T03:47:53.033Z,97376.86
2019-01-30T03:50:20.815Z,97372.66
2019-01-30T03:52:48.808Z,97368.77
2019-01-30T03:55:16.824Z,97364.75
2019-01-30T03:57:44.683Z,97364.27
2019-01-30T04:00:19.123Z,97360.88
2019-01-30T04:02:47.043Z,97356.69
2019-01-30T04:05:14.803Z,97351.98
2019-01-30T04:07:42.591Z,97354.41
2019-01-30T04:10:13.951Z,97351.36
2019-01-30T04:13:01.201Z,97351.35
2019-01-30T04:15:29.012Z,97347.64
2019-01-30T04:18:16.490Z,97348.27
2019-01-30T04:20:44.329Z,97341.49
2019-01-30T04:23:12.073Z,97344.57
2019-01-30T04:25:39.892Z,97337.47
2019-01-30T04:28:12.662Z,97339.08
2019-01-30T04:30:40.459Z,97336.69
2019-01-30T04:33:08.276Z,97333.61
2019-01-30T04:35:36.095Z,97342.98
2019-01-30T04:38:03.981Z,97338.62
2019-01-30T04:40:41.971Z,97344.30
2019-01-30T04:43:09.774Z,97350.42
2019-01-30T04:45:37.566Z,97353.34
2019-01-30T04:48:10.467Z,97340.77
2019-01-30T04:50:38.232Z,97342.38
2019-01-30T04:53:06.184Z,97341.41
2019-01-30T04:55:33.987Z,97332.20
2019-01-30T04:58:16.869Z,97336.25
2019-01-30T05:00:44.633Z,97332.53
2019-01-30T05:03:12.426Z,97327.67
2019-01-30T05:05:40.220Z,97330.42
2019-01-30T05:08:07.991Z,97332.19
2019-01-30T05:10:35.807Z,97327.05
2019-01-30T05:13:23.098Z,97326.70
2019-01-30T05:15:50.911Z,97322.05
2019-01-30T05:18:33.948Z,97326.89
2019-01-30T05:21:01.752Z,97327.53
2019-01-30T05:23:29.513Z,97319.80
2019-01-30T05:25:59.965Z,97321.89
2019-01-30T05:28:28.778Z,97321.09
2019-01-30T05:30:56.513Z,97316.09
2019-01-30T05:33:24.408Z,97307.20
2019-01-30T05:35:52.226Z,97296.89
2019-01-30T05:39:00.164Z,97295.11
2019-01-30T05:41:27.930Z,97294.95
2019-01-30T05:43:55.769Z,97289.63
2019-01-30T05:46:24.064Z,97291.25
2019-01-30T05:48:51.892Z,97289.81
2019-01-30T05:51:19.700Z,97293.35
2019-01-30T05:53:47.491Z,97289.66
2019-01-30T05:56:15.283Z,97292.06
2019-01-30T05:58:44.276Z,97294.66
2019-01-30T06:01:12.078Z,97296.74
2019-01-30T06:03:39.888Z,97292.88
2019-01-30T06:06:07.692Z,97295.45
2019-01-30T06:08:36.073Z,97300.78
2019-01-30T06:11:03.988Z,97291.89
2019-01-30T06:13:31.833Z,97296.45
2019-01-30T06:15:59.639Z,97291.58
2019-01-30T06:18:27.483Z,97287.22
2019-01-30T06:20:55.277Z,97288.52
2019-01-30T06:23:23.070Z,97283.83
2019-01-30T06:25:51.140Z,97287.55
2019-01-30T06:28:29.769Z,97281.56
2019-01-30T06:30:57.583Z,97280.92
2019-01-30T06:33:25.449Z,97279.47
2019-01-30T06:35:53.254Z,97288.52
2019-01-30T06:38:21.156Z,97283.84
2019-01-30T06:40:48.930Z,97283.35
2019-01-30T06:43:16.800Z,97282.86
2019-01-30T06:45:44.531Z,97281.39
2019-01-30T06:48:12.495Z,97281.55
2019-01-30T06:50:42.038Z,97284.95
2019-01-30T06:53:09.853Z,97286.41
2019-01-30T06:55:37.703Z,97287.08
2019-01-30T06:58:05.757Z,97295.13
2019-01-30T07:00:33.636Z,97305.33
2019-01-30T07:03:01.495Z,97291.77
2019-01-30T07:05:29.271Z,97299.03
2019-01-30T07:07:57.092Z,97294.98
2019-01-30T07:10:28.339Z,97296.28
2019-01-30T07:12:56.128Z,97291.78
2019-01-30T07:15:24.076Z,97292.73
2019-01-30T07:17:52.328Z,97287.22
2019-01-30T07:20:20.160Z,97279.63
2019-01-30T07:22:47.945Z,97275.59
2019-01-30T07:25:17.244Z,97265.08
2019-01-30T07:27:50.291Z,97259.77
2019-01-30T07:30:27.327Z,97272.54
2019-01-30T07:32:55.099Z,97279.31
2019-01-30T07:35:23.126Z,97289.33
2019-01-30T07:37:51.098Z,97283.34
2019-01-30T07:40:18.910Z,97285.78
2019-01-30T07:42:55.053Z,97289.02
2019-01-30T07:45:33.090Z,97296.60
2019-01-30T07:48:02.315Z,97295.95
2019-01-30T07:50:30.175Z,97293.38
2019-01-30T07:52:58.936Z,97301.78
2019-01-30T07:55:27.172Z,97302.28
2019-01-30T07:57:54.967Z,97309.38
2019-01-30T08:00:42.214Z,97302.91
2019-01-30T08:03:10.044Z,97299.98
2019-01-30T08:05:37.818Z,97302.56
2019-01-30T08:08:05.642Z,97302.73
2019-01-30T08:10:33.471Z,97303.37
2019-01-30T08:13:01.239Z,97294.81
2019-01-30T08:15:28.982Z,97299.00
2019-01-30T08:18:02.186Z,97296.25
2019-01-30T08:20:29.991Z,97298.69
2019-01-30T08:22:58.045Z,97294.94
2019-01-30T08:25:26.294Z,97298.02
2019-01-30T08:27:54.363Z,97300.11
2019-01-30T08:30:28.705Z,97298.99
2019-01-30T08:33:04.194Z,97303.20
2019-01-30T08:35:29.753Z,97299.50
2019-01-30T08:37:57.597Z,97297.06
2019-01-30T08:40:25.469Z,97292.86
2019-01-30T08:42:53.263Z,97296.25
2019-01-30T08:45:27.381Z,97295.14
2019-01-30T08:48:00.574Z,97294.48
2019-01-30T08:50:28.577Z,97295.47
2019-01-30T08:52:56.754Z,97291.10
2019-01-30T08:55:24.505Z,97288.81
2019-01-30T08:57:52.345Z,97291.09
2019-01-30T09:00:21.918Z,97288.02
2019-01-30T09:02:49.707Z,97286.54
2019-01-30T09:05:17.477Z,97287.67
2019-01-30T09:07:45.354Z,97288.15
2019-01-30T09:10:20.567Z,97284.57
2019-01-30T09:12:48.549Z,97294.58
2019-01-30T09:15:18.811Z,97288.59
2019-01-30T09:17:47.035Z,97289.23
2019-01-30T09:20:17.784Z,97283.88
2019-01-30T09:22:45.599Z,97284.83
2019-01-30T09:25:16.607Z,97278.34
2019-01-30T09:27:50.052Z,97268.45
2019-01-30T09:30:23.728Z,97269.06
2019-01-30T09:32:51.732Z,97273.28
2019-01-30T09:35:19.582Z,97274.84
2019-01-30T09:38:02.413Z,97268.52
2019-01-30T09:40:30.208Z,97267.88
2019-01-30T09:42:58.024Z,97265.16
2019-01-30T09:45:25.848Z,97274.58
2019-01-30T09:47:53.693Z,97274.73
2019-01-30T09:50:21.524Z,97290.28
2019-01-30T09:52:49.836Z,97284.92
2019-01-30T09:55:18.129Z,97294.46
2019-01-30T09:58:05.405Z,97295.23
2019-01-30T10:00:35.371Z,97296.98
2019-01-30T10:03:03.780Z,97298.41
2019-01-30T10:05:31.535Z,97302.61
2019-01-30T10:07:59.364Z,97298.38
2019-01-30T10:10:30.413Z,97303.74
2019-01-30T10:12:58.352Z,97298.86
2019-01-30T10:15:30.024Z,97295.29
2019-01-30T10:17:57.993Z,97290.92
2019-01-30T10:20:26.603Z,97284.97
2019-01-30T10:22:54.486Z,97291.47
2019-01-30T10:25:22.278Z,97293.45
2019-01-30T10:27:50.277Z,97288.40
2019-01-30T10:30:22.397Z,97293.58
2019-01-30T10:32:50.175Z,97292.94
2019-01-30T10:35:18.095Z,97292.30
2019-01-30T10:37:45.978Z,97295.37
2019-01-30T10:40:16.237Z,97298.61
2019-01-30T10:42:44.230Z,97291.30
2019-01-30T10:45:12.230Z,97289.34
2019-01-30T10:47:40.049Z,97289.95
2019-01-30T10:50:10.243Z,97286.94
2019-01-30T10:52:37.999Z,97282.47
2019-01-30T10:55:09.240Z,97276.22
2019-01-30T10:57:42.421Z,97267.20
2019-01-30T11:00:16.231Z,97268.57
2019-01-30T11:02:46.438Z,97276.91
2019-01-30T11:05:14.936Z,97270.25
2019-01-30T11:07:42.881Z,97260.83
2019-01-30T11:10:12.503Z,97258.22
2019-01-30T11:12:40.355Z,97253.70
2019-01-30T11:15:11.215Z,97259.24
2019-01-30T11:17:39.005Z,97246.86
2019-01-30T11:20:08.618Z,97248.93
2019-01-30T11:22:36.407Z,97242.66
2019-01-30T11:25:09.261Z,97237.27
2019-01-30T11:27:37.055Z,97237.03
2019-01-30T11:30:06.487Z,97236.89
2019-01-30T11:32:34.243Z,97238.03
2019-01-30T11:35:02.006Z,97236.39
2019-01-30T11:37:29.764Z,97235.13
2019-01-30T11:39:57.570Z,97222.42
2019-01-30T11:42:26.046Z,97221.21
2019-01-30T11:44:53.839Z,97229.72
2019-01-30T11:47:21.633Z,97227.44
2019-01-30T11:49:49.547Z,97222.30
2019-01-30T11:52:17.415Z,97220.81
2019-01-30T11:54:45.255Z,97217.72
2019-01-30T11:57:13.021Z,97219.05
2019-01-30T11:59:40.819Z,97215.27
2019-01-30T12:02:08.657Z,97217.81
2019-01-30T12:04:36.444Z,97213.40
2019-01-30T12:07:04.337Z,97221.76
2019-01-30T12:09:32.263Z,97221.13
2019-01-30T12:12:00.040Z,97215.56
2019-01-30T12:14:27.827Z,97214.69
2019-01-30T12:16:55.692Z,97217.67
2019-01-30T12:19:26.650Z,97215.56
2019-01-30T12:21:54.505Z,97211.92
2019-01-30T12:24:22.409Z,97215.79
2019-01-30T12:26:50.203Z,97213.37
2019-01-30T12:29:18.187Z,97213.60
2019-01-30T12:31:49.999Z,97210.47
2019-01-30T12:34:27.823Z,97215.38
2019-01-30T12:36:47.697Z,97214.69
2019-01-30T12:39:15.591Z,97213.23
2019-01-30T12:41:43.381Z,97216.70
2019-01-30T12:44:11.206Z,97212.84
2019-01-30T12:46:39.029Z,97211.32
2019-01-30T12:49:06.994Z,97207.12
2019-01-30T12:51:36.254Z,97197.76
2019-01-30T12:54:04.512Z,97196.92
2019-01-30T12:56:32.505Z,97194.98
2019-01-30T12:59:00.290Z,97188.73
2019-01-30T13:01:28.137Z,97187.30
2019-01-30T13:03:55.986Z,97196.05
2019-01-30T13:06:23.775Z,97187.09
2019-01-30T13:08:51.640Z,97186.64
2019-01-30T13:11:19.426Z,97181.32
2019-01-30T13:13:47.267Z,97183.49
2019-01-30T13:16:15.097Z,97187.77
2019-01-30T13:18:42.978Z,97184.94
2019-01-30T13:21:10.771Z,97184.19
2019-01-30T13:23:38.631Z,97177.55
2019-01-30T13:26:06.547Z,97179.38
2019-01-30T13:28:34.520Z,97177.83
2019-01-30T13:31:02.299Z,97176.70
2019-01-30T13:33:30.066Z,97171.85
2019-01-30T13:35:57.859Z,97173.44
2019-01-30T13:38:25.648Z,97177.11
2019-01-30T13:40:53.463Z,97179.23
2019-01-30T13:43:21.699Z,97178.91
2019-01-30T13:45:49.542Z,97180.83
2019-01-30T13:48:20.979Z,97179.79
2019-01-30T13:51:08.627Z,97181.70
2019-01-30T13:53:37.974Z,97177.92
2019-01-30T13:56:05.799Z,97177.31
2019-01-30T13:58:38.817Z,97173.67
2019-01-30T14:01:17.021Z,97177.23
2019-01-30T14:03:36.424Z,97179.25
2019-01-30T14:06:04.245Z,97183.91
2019-01-30T14:08:32.260Z,97177.99
2019-01-30T14:11:00.004Z,97180.38
2019-01-30T14:13:27.813Z,97182.11
2019-01-30T14:15:55.583Z,97189.07
2019-01-30T14:18:23.483Z,97187.25
2019-01-30T14:20:51.268Z,97190.09
2019-01-30T14:23:19.026Z,97188.98
2019-01-30T14:25:46.851Z,97194.30
2019-01-30T14:28:14.628Z,97197.60
2019-01-30T14:30:42.380Z,97195.03
2019-01-30T14:33:10.165Z,97206.95
2019-01-30T14:35:44.294Z,97209.84
2019-01-30T14:38:12.247Z,97212.83
2019-01-30T14:40:40.763Z,97221.89
2019-01-30T14:43:09.121Z,97228.07
2019-01-30T14:45:36.882Z,97229.88
2019-01-30T14:48:04.890Z,97229.23
2019-01-30T14:50:32.725Z,97230.78
2019-01-30T14:53:00.482Z,97235.31
2019-01-30T14:55:28.229Z,97229.68
2019-01-30T14:57:56.096Z,97227.83
2019-01-30T15:00:29.643Z,97234.08
2019-01-30T15:02:57.485Z,97233.28
2019-01-30T15:05:25.533Z,97232.79
2019-01-30T15:07:53.346Z,97235.08
2019-01-30T15:10:22.461Z,97236.80
2019-01-30T15:12:53.821Z,97240.67
2019-01-30T15:15:24.540Z,97240.23
2019-01-30T15:18:00.648Z,97242.32
2019-01-30T15:20:31.819Z,97243.66
2019-01-30T15:23:05.867Z,97245.17
2019-01-30T15:25:33.705Z,97241.42
2019-01-30T15:28:04.028Z,97236.88
2019-01-30T15:30:46.491Z,97243.25
2019-01-30T15:33:14.497Z,97245.41
2019-01-30T15:35:42.341Z,97254.97
2019-01-30T15:38:13.035Z,97249.75
2019-01-30T15:40:40.842Z,97253.17
2019-01-30T15:43:08.653Z,97252.37
2019-01-30T15:45:36.469Z,97249.56
2019-01-30T15:48:04.666Z,97248.09
2019-01-30T15:50:33.874Z,97260.95
2019-01-30T15:53:04.874Z,97263.73
2019-01-30T15:55:32.656Z,97254.34
2019-01-30T15:58:05.095Z,97261.16
2019-01-30T16:01:09.409Z,97267.51
2019-01-30T16:03:50.727Z,97266.28
2019-01-30T16:06:18.563Z,97272.48
2019-01-30T16:08:48.109Z,97277.84
2019-01-30T16:11:16.418Z,97278.37
2019-01-30T16:13:44.266Z,97282.98
2019-01-30T16:16:20.934Z,97281.89
2019-01-30T16:18:48.798Z,97288.78
2019-01-30T16:21:16.667Z,97291.37
2019-01-30T16:23:46.864Z,97287.47
2019-01-30T16:26:14.808Z,97288.63
2019-01-30T16:28:42.646Z,97284.42
2019-01-30T16:31:11.362Z,97293.19
2019-01-30T16:33:39.327Z,97296.27
2019-01-30T16:36:07.124Z,97297.24
2019-01-30T16:38:45.108Z,97299.39
2019-01-30T16:41:12.966Z,97303.64
2019-01-30T16:43:40.768Z,97314.34
2019-01-30T16:46:08.660Z,97314.08
2019-01-30T16:48:36.517Z,97316.51
2019-01-30T16:51:04.433Z,97324.00
2019-01-30T16:53:32.259Z,97326.73
2019-01-30T16:56:00.113Z,97329.51
2019-01-30T16:58:28.014Z,97339.42
2019-01-30T17:00:55.848Z,97339.77
2019-01-30T17:03:23.737Z,97311.78
2019-01-30T17:05:51.532Z,97349.05
2019-01-30T17:08:19.536Z,97354.08
2019-01-30T17:10:47.392Z,97355.22
2019-01-30T17:13:15.217Z,97362.52
2019-01-30T17:15:43.035Z,97356.39
2019-01-30T17:18:13.086Z,97362.16
2019-01-30T17:20:41.093Z,97362.84
2019-01-30T17:23:08.910Z,97365.77
2019-01-30T17:25:36.884Z,97373.95
2019-01-30T17:28:10.018Z,97376.41
2019-01-30T17:31:00.696Z,97376.75
2019-01-30T17:33:28.517Z,97383.12
2019-01-30T17:35:56.318Z,97389.62
2019-01-30T17:38:25.225Z,97393.50
2019-01-30T17:40:54.968Z,97396.13
2019-01-30T17:43:23.601Z,97396.14
2019-01-30T17:45:51.421Z,97404.60
2019-01-30T17:48:19.282Z,97408.96
2019-01-30T17:50:47.044Z,97411.44
2019-01-30T17:53:14.825Z,97411.77
2019-01-30T17:55:42.869Z,97423.48
2019-01-30T17:58:15.939Z,97419.27
2019-01-30T18:00:52.114Z,97421.38
2019-01-30T18:03:19.948Z,97428.08
2019-01-30T18:05:47.863Z,97429.89
2019-01-30T18:08:15.874Z,97445.50
2019-01-30T18:10:43.718Z,97435.09
2019-01-30T18:13:11.530Z,97440.14
2019-01-30T18:15:55.039Z,97440.95
2019-01-30T18:21:11.597Z,97450.42
2019-01-30T18:23:42.968Z,97448.97
2019-01-30T18:26:14.058Z,97451.06
2019-01-30T18:29:09.590Z,97458.38
2019-01-30T18:31:42.367Z,97457.91
2019-01-30T18:34:10.318Z,97464.26
2019-01-30T18:36:41.304Z,97465.86
2019-01-30T18:39:09.336Z,97472.72
2019-01-30T18:41:37.197Z,97473.39
2019-01-30T18:44:05.030Z,97477.45
2019-01-30T18:46:32.827Z,97484.29
2019-01-30T18:49:00.712Z,97474.41
2019-01-30T18:51:30.882Z,97480.45
2019-01-30T18:53:59.218Z,97484.64
2019-01-30T18:56:27.020Z,97489.38
2019-01-30T18:58:55.036Z,97487.94
2019-01-30T19:01:22.886Z,97497.22
2019-01-30T19:03:50.725Z,97495.78
2019-01-30T19:06:18.617Z,97498.22
2019-01-30T19:08:48.054Z,97495.86
2019-01-30T19:11:16.948Z,97500.08
2019-01-30T19:13:44.755Z,97500.57
2019-01-30T19:16:12.569Z,97500.89
2019-01-30T19:18:40.525Z,97510.02
2019-01-30T19:21:08.334Z,97509.18
2019-01-30T19:23:36.177Z,97510.67
2019-01-30T19:26:04.470Z,97513.59
2019-01-30T19:28:37.438Z,97517.00
2019-01-30T19:31:05.357Z,97524.17
2019-01-30T19:33:52.599Z,97527.40
2019-01-30T19:36:20.422Z,97528.58
2019-01-30T19:38:48.374Z,97529.77
2019-01-30T19:41:16.190Z,97526.70
2019-01-30T19:43:44.072Z,97535.18
2019-01-30T19:46:11.945Z,97537.61
2019-01-30T19:48:40.266Z,97534.53
2019-01-30T19:51:08.083Z,97538.90
2019-01-30T19:53:35.964Z,97543.12
2019-01-30T19:56:04.143Z,97535.83
2019-01-30T19:58:32.021Z,97543.80
2019-01-30T20:00:59.921Z,97541.89
2019-01-30T20:03:31.656Z,97559.23
2019-01-30T20:05:59.562Z,97554.48
2019-01-30T20:08:30.484Z,97567.47
2019-01-30T20:10:58.397Z,97568.09
2019-01-30T20:13:26.244Z,97568.13
2019-01-30T20:15:54.237Z,97570.56
2019-01-30T20:18:22.927Z,97576.38
2019-01-30T20:20:50.847Z,97577.69
2019-01-30T20:23:18.927Z,97577.48
2019-01-30T20:25:46.905Z,97578.95
2019-01-30T20:28:19.891Z,97581.89
2019-01-30T20:30:47.765Z,97583.81
2019-01-30T20:33:15.698Z,97584.30
2019-01-30T20:35:43.517Z,97588.52
2019-01-30T20:38:16.383Z,97585.91
2019-01-30T20:40:44.246Z,97592.41
2019-01-30T20:43:12.037Z,97598.44
2019-01-30T20:45:39.967Z,97601.06
2019-01-30T20:48:08.582Z,97603.33
2019-01-30T20:50:36.447Z,97602.50
2019-01-30T20:53:04.303Z,97606.38
2019-01-30T20:55:32.170Z,97611.73
2019-01-30T20:58:00.027Z,97610.62
2019-01-30T21:00:31.147Z,97608.82
2019-01-30T21:02:59.035Z,97614.16
2019-01-30T21:05:27.083Z,97614.63
2019-01-30T21:08:00.294Z,97614.13
2019-01-30T21:10:34.398Z,97622.27
2019-01-30T21:13:02.303Z,97622.58
2019-01-30T21:15:30.171Z,97632.14
2019-01-30T21:17:58.031Z,97627.10
2019-01-30T21:20:25.840Z,97631.80
2019-01-30T21:22:53.689Z,97629.67
2019-01-30T21:25:21.931Z,97633.90
2019-01-30T21:27:49.959Z,97630.00
2019-01-30T21:30:24.275Z,97632.28
2019-01-30T21:32:52.105Z,97638.47
2019-01-30T21:35:19.982Z,97635.06
2019-01-30T21:37:49.127Z,97632.31
2019-01-30T21:40:17.433Z,97631.48
2019-01-30T21:42:45.537Z,97639.77
2019-01-30T21:45:19.230Z,97643.52
2019-01-30T21:47:47.056Z,97649.52
2019-01-30T21:50:15.627Z,97647.57
2019-01-30T21:52:43.577Z,97657.65
2019-01-30T21:55:15.084Z,97647.61
2019-01-30T21:57:42.875Z,97662.87
2019-01-30T22:00:17.448Z,97657.19
2019-01-30T22:02:47.512Z,97662.55
2019-01-30T22:05:16.180Z,97668.59
2019-01-30T22:07:44.587Z,97666.34
2019-01-30T22:10:15.901Z,97665.67
2019-01-30T22:12:43.866Z,97667.15
2019-01-30T22:15:13.278Z,97663.12
2019-01-30T22:17:46.262Z,97663.44
2019-01-30T22:20:17.575Z,97671.22
2019-01-30T22:22:45.398Z,97667.16
2019-01-30T22:25:20.479Z,97673.34
2019-01-30T22:27:45.841Z,97681.30
2019-01-30T22:30:29.661Z,97675.60
2019-01-30T22:32:57.435Z,97688.11
2019-01-30T22:35:25.277Z,97689.88
2019-01-30T22:37:53.147Z,97685.66
2019-01-30T22:40:21.111Z,97692.47
2019-01-30T22:42:48.946Z,97694.28
2019-01-30T22:45:17.774Z,97690.69
2019-01-30T22:47:45.699Z,97691.02
2019-01-30T22:50:14.494Z,97687.27
2019-01-30T22:52:42.258Z,97689.05
2019-01-30T22:55:12.953Z,97690.84
2019-01-30T22:57:40.802Z,97692.31
2019-01-30T23:01:04.757Z,97697.04
2019-01-30T23:04:39.449Z,97701.23
2019-01-30T23:08:09.926Z,97700.77
2019-01-30T23:11:33.407Z,97700.60
2019-01-30T23:14:26.160Z,97702.89
2019-01-30T23:18:02.120Z,97706.77
2019-01-30T23:20:41.301Z,97707.27
2019-01-30T23:23:56.471Z,97706.13
2019-01-30T23:26:53.845Z,97704.66
2019-01-30T23:30:20.467Z,97704.84
2019-01-30T23:33:31.332Z,97700.29
2019-01-30T23:36:29.291Z,97701.27
2019-01-30T23:39:19.087Z,97697.39
2019-01-30T23:43:03.651Z,97697.05
2019-01-30T23:45:58.654Z,97695.77
2019-01-30T23:49:33.264Z,97697.89
2019-01-30T23:52:41.565Z,97701.64
2019-01-30T23:55:20.074Z,97700.48
2019-01-30T23:58:40.028Z,97700.83
